Martinsburg, PA

4:51 AM EDT on May 26, 2015 (GMT -0400)
Altoona-Blair County | | Change Station
CLOSE
Current Station
Airport
Location: Altoona,
Elevation: 1503 ft
Nearby Weather Stations

Elev 1503 ft 40.30 °N, 78.32 °W | Updated 58 minutes ago

Mostly Cloudy
Mostly Cloudy
67 °F
Feels Like 67 °F
N
4
Wind Variable Wind from WSW

Today
High -- | Low -- °F
--% Chance of Precip.
Yesterday
High -- | Low -- °F
Precip. -- in
5:48 AM 8:32 PM
First Quarter, 56% visible
Pressure 30.15 in
Visibility 10.0 miles
Clouds Mostly Cloudy 12000 ft
Dew Point 57 °F
Humidity 70%
Rainfall 0.00 in
Snow Depth Not available.
UV 0 out of 12
Pollen 9.60 out of 12
Air Quality Not available.
Flu Activity Sporadic
METAR KAOO 260753Z AUTO 25003KT 10SM BKN120 19/14 A3019 RMK AO2 SLP210 T01940139

More Conditions Fewer Conditions

Pressure 30.15 in
Visibility 10.0 miles
Clouds Mostly Cloudy 12000 ft
Dew Point 57 °F
Humidity 70%
Rainfall 0.00 in
Snow Depth Not available.
UV 0 out of 12
Pollen 9.60 out of 12
Air Quality Not available.
Flu Activity Sporadic
METAR KAOO 260753Z AUTO 25003KT 10SM BKN120 19/14 A3019 RMK AO2 SLP210 T01940139

More Conditions Fewer Conditions

Nowcast | as of 4:33 am EDT on May 26, 2015

Isolated...mainly light...rain showers will drift east across the region through 530 am. Most areas will remain dry during this time.

×

10-Day Weather Forecast

Almanac

Astronomy

May. 26, 2015 Rise Set
Actual Time
Civil Twilight
Nautical Twilight
Astronomical Twilight
Moon
Length of Visible Light
Length of Day
Tomorrow will be .
, % of the Moon is Illuminated

Today's Extremes

State Highs State Lows

Community

WunderPhotos

Upload Photos

1,824,302 photos uploaded!

WunderBlogs® & News

Nearby

Air Quality

  Air Quality AQ Index Pollutant
Not available.

Snow Depth

Station Depth Elevation

Earthquake Activity

City Distance Mag. Time & Date
Minimum magnitude displayed is 2.5.

Coastal Water Temperatures

Place Temperature

Stations

Nearby Weather Stations

Station Location Temp. Windchill Dew Point Humidity Wind Precip. Elev Updated Type